Airfield :







YOU CAN JOIN US ON...

 
LOGIN :

Register | Disclaimer

   EN    FR    IT 

 









Legend :    VFR   Marginal VFR   IFR   Intensive IFR   Very Intensive IFR
Visi :
Ceiling :
>= 8 km
>= 3000ft
5 to 8 km
1000 to 3000 ft
1500m to 5 km
500 to 1000 ft
800 to 1500m
200 to 500 ft
< 800m
< 200 ft
Symbols :   Thunderstorms  Fog  Heavy snow  Heavy precipitations  Wind > 20 kt







- Airport Elevation : 215 ft
- IATA code : MSS


KMSS - Massena International Richards Field

CURRENT METAR :
  • 222053Z AUTO 21009G18KT 10SM CLR 28/19 A2988 RMK AO2 SLP116 T02780194 56022

EXPIRED METARs :
  • 221953Z AUTO 22013G22KT 10SM CLR 26/19 A2990 RMK AO2 SLP124 T02610189
  • 221853Z AUTO 21012G21KT 10SM BKN075 27/19 A2992 RMK AO2 SLP130 T02670194

TAF KMSS
Valid from the 22 at 18:00 until the 23 at 18:00 UTC


221729Z 2218/2318 22013G23KT P6SM OVC090
FM222300 22009KT P6SM BKN100
FM230700 22013KT P6SM VCSH BKN080
FM231200 22010G19KT P6SM VCSH OVC040
FM231400 22011G26KT P6SM VCSH OVC025
No reported NOTAMs for that airfield.



MET'MAP, your aeronautical weather chart ! - Copyright ORBIFLY December 2007 - Disclaimer

ORBIFLY MET'MAP TEAM :

Programming & Development : Alexandra Zaïnal
Concept & Development : Baudouin d'Aumeries
Co-Development & Prog : Marc-Olivier Méhu
Technical & hardware support : Manuel Goepfert

Contact : metmap@orbifly.com




SOURCES & CREDITS :

   NOAA